createdAt,value
2018-06-17T00:01:24.515Z,17.40
2018-06-17T00:03:54.150Z,17.40
2018-06-17T00:06:22.178Z,17.40
2018-06-17T00:08:50.216Z,17.40
2018-06-17T00:11:18.176Z,17.40
2018-06-17T00:13:46.105Z,17.40
2018-06-17T00:16:14.312Z,17.40
2018-06-17T00:19:01.615Z,17.40
2018-06-17T00:23:57.333Z,17.30
2018-06-17T00:26:36.303Z,17.30
2018-06-17T00:29:04.254Z,17.20
2018-06-17T00:31:32.162Z,17.20
2018-06-17T00:34:00.078Z,17.20
2018-06-17T00:36:34.966Z,17.20
2018-06-17T00:39:04.093Z,17.20
2018-06-17T00:41:32.045Z,17.10
2018-06-17T00:43:59.928Z,17.10
2018-06-17T00:49:33.256Z,17.10
2018-06-17T00:52:01.266Z,17.00
2018-06-17T00:54:29.166Z,17.00
2018-06-17T00:57:08.097Z,17.00
2018-06-17T00:59:36.019Z,17.00
2018-06-17T01:02:04.015Z,17.00
2018-06-17T01:04:31.905Z,16.90
2018-06-17T01:07:03.691Z,16.90
2018-06-17T01:11:59.552Z,16.80
2018-06-17T01:14:27.483Z,16.80
2018-06-17T01:16:59.670Z,16.80
2018-06-17T01:19:27.680Z,16.70
2018-06-17T01:21:55.708Z,16.70
2018-06-17T01:24:23.637Z,16.70
2018-06-17T01:26:53.617Z,16.60
2018-06-17T01:29:21.556Z,16.60
2018-06-17T01:31:49.409Z,16.50
2018-06-17T01:36:53.162Z,16.50
2018-06-17T01:39:21.066Z,16.50
2018-06-17T01:41:48.964Z,16.50
2018-06-17T01:44:16.946Z,16.60
2018-06-17T01:46:48.512Z,16.60
2018-06-17T01:49:16.488Z,16.60
2018-06-17T01:51:44.386Z,16.60
2018-06-17T01:54:12.318Z,16.60
2018-06-17T01:56:59.745Z,16.60
2018-06-17T01:59:27.696Z,16.60
2018-06-17T02:04:29.041Z,16.60
2018-06-17T02:07:08.867Z,16.60
2018-06-17T02:09:42.351Z,16.60
2018-06-17T02:14:55.661Z,16.50
2018-06-17T02:17:24.480Z,16.50
2018-06-17T02:19:53.098Z,16.50
2018-06-17T02:22:33.604Z,16.50
2018-06-17T02:25:01.516Z,16.50
2018-06-17T02:27:29.422Z,16.50
2018-06-17T02:29:57.286Z,16.50
2018-06-17T02:32:27.331Z,16.50
2018-06-17T02:34:55.254Z,16.50
2018-06-17T02:37:23.188Z,16.50
2018-06-17T02:39:51.199Z,16.50
2018-06-17T02:42:42.433Z,16.50
2018-06-17T02:45:15.981Z,16.50
2018-06-17T02:47:49.420Z,16.50
2018-06-17T02:53:01.977Z,16.50
2018-06-17T02:55:29.894Z,16.50
2018-06-17T02:57:57.796Z,16.50
2018-06-17T03:00:25.656Z,16.50
2018-06-17T03:02:53.617Z,16.50
2018-06-17T03:05:21.511Z,16.40
2018-06-17T03:07:49.477Z,16.40
2018-06-17T03:10:17.406Z,16.40
2018-06-17T03:12:45.301Z,16.40
2018-06-17T03:19:39.442Z,16.50
2018-06-17T03:22:07.367Z,16.50
2018-06-17T03:27:34.051Z,16.60
2018-06-17T03:30:07.411Z,16.60
2018-06-17T03:32:40.807Z,16.70
2018-06-17T03:38:29.888Z,16.70
2018-06-17T03:40:57.839Z,16.80
2018-06-17T03:43:25.760Z,16.80
2018-06-17T03:45:53.825Z,16.80
2018-06-17T03:48:21.792Z,16.90
2018-06-17T03:50:49.751Z,16.90
2018-06-17T03:53:17.726Z,16.90
2018-06-17T03:55:45.731Z,17.00
2018-06-17T03:58:13.904Z,17.10
2018-06-17T04:00:42.930Z,17.10
2018-06-17T04:03:10.885Z,17.10
2018-06-17T04:05:38.776Z,17.20
2018-06-17T04:08:06.738Z,17.30
2018-06-17T04:10:38.439Z,17.30
2018-06-17T04:13:06.377Z,17.40
2018-06-17T04:15:34.331Z,17.50
2018-06-17T04:18:18.732Z,17.50
2018-06-17T04:23:14.396Z,17.70
2018-06-17T04:25:42.397Z,17.80
2018-06-17T04:28:10.360Z,17.90
2018-06-17T04:30:38.273Z,18.00
2018-06-17T04:33:06.200Z,18.10
2018-06-17T04:35:34.106Z,18.20
2018-06-17T04:38:14.909Z,18.30
2018-06-17T04:40:42.809Z,18.50
2018-06-17T04:43:10.749Z,18.90
2018-06-17T04:51:09.895Z,19.70
2018-06-17T04:53:37.816Z,20.00
2018-06-17T04:56:05.820Z,20.40
2018-06-17T04:58:33.724Z,21.60
2018-06-17T05:01:01.648Z,23.10
2018-06-17T05:03:29.554Z,24.00
2018-06-17T05:05:57.496Z,25.10
2018-06-17T05:08:25.364Z,25.70
2018-06-17T05:10:53.279Z,25.60
2018-06-17T05:13:29.565Z,25.40
2018-06-17T05:15:57.469Z,25.00
2018-06-17T05:18:25.361Z,24.50
2018-06-17T05:20:53.242Z,24.00
2018-06-17T05:23:27.270Z,23.70
2018-06-17T05:25:55.231Z,23.50
2018-06-17T05:28:23.216Z,23.90
2018-06-17T05:30:51.219Z,24.80
2018-06-17T05:33:32.281Z,26.10
2018-06-17T05:36:00.245Z,27.30
2018-06-17T05:38:28.217Z,28.70
2018-06-17T05:40:56.180Z,30.50
2018-06-17T05:43:33.580Z,32.30
2018-06-17T05:46:01.534Z,33.50
2018-06-17T05:48:29.472Z,33.80
2018-06-17T05:50:57.419Z,33.40
2018-06-17T05:55:53.271Z,32.10
2018-06-17T05:58:21.221Z,31.80
2018-06-17T06:00:49.210Z,31.40
2018-06-17T06:03:17.223Z,31.10
2018-06-17T06:05:45.115Z,31.00
2018-06-17T06:08:13.074Z,30.80
2018-06-17T06:10:51.101Z,30.90
2018-06-17T06:13:19.095Z,31.20
2018-06-17T06:15:46.974Z,31.20
2018-06-17T06:18:14.950Z,30.70
2018-06-17T06:21:00.926Z,30.40
2018-06-17T06:25:56.958Z,30.40
2018-06-17T06:28:25.294Z,30.30
2018-06-17T06:31:03.102Z,30.20
2018-06-17T06:33:31.105Z,30.50
2018-06-17T06:35:59.087Z,31.50
2018-06-17T06:38:36.958Z,32.50
2018-06-17T06:41:05.050Z,32.90
2018-06-17T06:43:33.023Z,32.70
2018-06-17T06:46:14.415Z,32.70
2018-06-17T06:48:42.343Z,32.90
2018-06-17T06:51:10.331Z,33.00
2018-06-17T06:53:38.336Z,32.90
2018-06-17T06:56:12.622Z,33.10
2018-06-17T06:58:40.591Z,33.60
2018-06-17T07:01:08.647Z,33.30
2018-06-17T07:04:50.585Z,33.30
2018-06-17T07:07:30.175Z,33.30
2018-06-17T07:10:35.071Z,32.20
2018-06-17T07:13:03.497Z,31.10
2018-06-17T07:15:43.014Z,29.90
2018-06-17T07:20:45.544Z,28.10
2018-06-17T07:23:14.141Z,27.50
2018-06-17T07:26:52.611Z,27.20
2018-06-17T07:29:35.249Z,28.20
2018-06-17T07:32:03.623Z,32.00
2018-06-17T07:34:32.530Z,34.50
2018-06-17T07:40:56.327Z,38.30
2018-06-17T07:43:24.740Z,39.70
2018-06-17T07:45:53.288Z,40.70
2018-06-17T07:49:40.730Z,41.50
2018-06-17T07:52:20.584Z,42.10
2018-06-17T07:54:49.090Z,43.10
2018-06-17T07:57:20.645Z,43.30
2018-06-17T08:04:45.129Z,43.70
2018-06-17T08:07:13.626Z,43.50
2018-06-17T08:12:11.291Z,42.30
2018-06-17T08:14:40.633Z,41.90
2018-06-17T08:17:09.298Z,41.70
2018-06-17T08:19:37.802Z,41.60
2018-06-17T08:22:06.305Z,41.00
2018-06-17T08:24:35.149Z,40.00
2018-06-17T08:27:03.629Z,38.90
2018-06-17T08:29:31.918Z,37.70
2018-06-17T08:32:00.231Z,36.40
2018-06-17T08:34:29.306Z,35.00
2018-06-17T08:36:57.738Z,33.60
2018-06-17T08:39:26.314Z,32.80
2018-06-17T08:41:54.699Z,32.20
2018-06-17T08:44:23.317Z,31.80
2018-06-17T08:46:51.746Z,31.60
2018-06-17T08:49:20.467Z,31.20
2018-06-17T08:51:48.917Z,31.10
2018-06-17T08:56:45.625Z,31.00
2018-06-17T08:59:13.952Z,30.80
2018-06-17T09:01:42.219Z,30.50
2018-06-17T09:04:10.576Z,30.40
2018-06-17T09:06:38.971Z,30.30
2018-06-17T09:09:09.555Z,30.10
2018-06-17T09:11:38.212Z,29.90
2018-06-17T09:14:06.701Z,29.90
2018-06-17T09:16:35.265Z,30.00
2018-06-17T09:19:03.661Z,30.00
2018-06-17T09:21:32.276Z,30.00
2018-06-17T09:24:00.568Z,29.90
2018-06-17T09:26:28.991Z,29.60
2018-06-17T09:28:58.236Z,29.40
2018-06-17T09:31:26.488Z,29.10
2018-06-17T09:33:54.665Z,28.90
2018-06-17T09:36:23.046Z,28.80
2018-06-17T09:38:51.148Z,28.60
2018-06-17T09:41:19.983Z,28.50
2018-06-17T09:43:48.384Z,28.30
2018-06-17T09:46:16.867Z,28.10
2018-06-17T09:48:45.483Z,27.90
2018-06-17T09:53:42.175Z,27.90
2018-06-17T09:58:39.651Z,28.30
2018-06-17T10:01:08.116Z,28.50
2018-06-17T10:03:36.521Z,28.70
2018-06-17T10:06:04.888Z,28.70
2018-06-17T10:16:15.722Z,28.80
2018-06-17T10:18:44.103Z,29.00
2018-06-17T10:21:12.158Z,29.00
2018-06-17T10:26:08.456Z,28.70
2018-06-17T10:28:36.768Z,28.60
2018-06-17T10:31:06.172Z,28.30
2018-06-17T10:33:36.709Z,27.90
2018-06-17T10:36:05.435Z,27.60
2018-06-17T10:43:32.637Z,26.70
2018-06-17T10:46:01.101Z,26.50
2018-06-17T10:48:29.375Z,26.60
2018-06-17T10:50:57.573Z,26.90
2018-06-17T10:53:25.896Z,27.40
2018-06-17T10:55:54.436Z,27.70
2018-06-17T10:58:22.790Z,27.80
2018-06-17T11:00:51.171Z,27.90
2018-06-17T11:03:19.775Z,27.90
2018-06-17T11:05:48.174Z,27.90
2018-06-17T11:08:16.572Z,28.00
2018-06-17T11:10:45.110Z,28.10
2018-06-17T11:13:14.441Z,28.40
2018-06-17T11:15:42.993Z,28.50
2018-06-17T11:18:11.213Z,28.50
2018-06-17T11:20:39.804Z,28.40
2018-06-17T11:23:08.096Z,28.50
2018-06-17T11:25:36.458Z,28.60
2018-06-17T11:28:04.799Z,28.80
2018-06-17T11:30:33.221Z,28.80
2018-06-17T11:33:01.609Z,28.70
2018-06-17T11:35:30.625Z,28.70
2018-06-17T11:37:59.107Z,28.60
2018-06-17T11:40:27.544Z,28.50
2018-06-17T11:42:56.467Z,28.20
2018-06-17T11:45:24.849Z,28.10
2018-06-17T11:47:53.954Z,28.10
2018-06-17T11:50:22.232Z,27.90
2018-06-17T11:52:50.713Z,27.70
2018-06-17T12:00:15.012Z,27.00
2018-06-17T12:02:43.425Z,26.80
2018-06-17T12:05:11.803Z,26.40
2018-06-17T12:10:08.508Z,25.20
2018-06-17T12:12:36.748Z,24.70
2018-06-17T12:15:05.413Z,24.30
2018-06-17T12:17:33.921Z,24.00
2018-06-17T12:20:02.387Z,23.60
2018-06-17T12:22:30.721Z,23.30
2018-06-17T12:24:59.208Z,22.90
2018-06-17T12:27:27.512Z,22.30
2018-06-17T12:34:53.436Z,20.80
2018-06-17T12:37:22.429Z,20.40
2018-06-17T12:39:50.891Z,20.20
2018-06-17T12:42:19.337Z,20.00
2018-06-17T12:44:47.835Z,19.80
2018-06-17T12:49:44.300Z,19.50
2018-06-17T12:52:12.799Z,19.30
2018-06-17T12:54:41.105Z,19.20
2018-06-17T12:57:09.516Z,19.20
2018-06-17T13:02:06.129Z,19.30
2018-06-17T13:04:34.673Z,19.30
2018-06-17T13:07:03.154Z,19.40
2018-06-17T13:09:31.738Z,19.50
2018-06-17T13:14:27.824Z,19.70
2018-06-17T13:16:56.346Z,19.80
2018-06-17T13:19:25.644Z,20.00
2018-06-17T13:21:53.951Z,20.10
2018-06-17T13:24:22.357Z,20.30
2018-06-17T13:26:51.089Z,20.60
2018-06-17T13:29:19.461Z,20.90
2018-06-17T13:31:48.051Z,21.20
2018-06-17T13:34:16.349Z,21.60
2018-06-17T13:36:44.728Z,21.80
2018-06-17T13:41:42.062Z,22.20
2018-06-17T13:44:10.361Z,22.30
2018-06-17T13:46:38.513Z,22.50
2018-06-17T13:49:07.363Z,22.70
2018-06-17T13:51:35.649Z,23.00
2018-06-17T14:01:28.339Z,23.40
2018-06-17T14:03:57.553Z,23.30
2018-06-17T14:06:25.970Z,23.30
2018-06-17T14:08:54.485Z,23.10
2018-06-17T14:11:22.735Z,23.10
2018-06-17T14:16:19.583Z,23.00
2018-06-17T14:18:49.519Z,23.10
2018-06-17T14:21:17.884Z,23.10
2018-06-17T14:23:45.974Z,23.00
2018-06-17T14:26:14.789Z,22.90
2018-06-17T14:28:43.047Z,22.80
2018-06-17T14:31:11.423Z,22.80
2018-06-17T14:33:39.676Z,22.70
2018-06-17T14:36:08.032Z,22.70
2018-06-17T14:38:37.356Z,22.80
2018-06-17T14:41:11.586Z,22.70
2018-06-17T14:43:45.592Z,22.70
2018-06-17T14:46:19.337Z,22.70
2018-06-17T14:48:52.987Z,22.60
2018-06-17T14:51:26.727Z,22.60
2018-06-17T14:53:55.055Z,22.60
2018-06-17T14:56:23.389Z,22.50
2018-06-17T15:01:20.278Z,22.40
2018-06-17T15:03:48.825Z,22.40
2018-06-17T15:06:17.312Z,22.40
2018-06-17T15:08:45.601Z,22.40
2018-06-17T15:11:14.404Z,22.30
2018-06-17T15:13:42.802Z,22.30
2018-06-17T15:16:11.415Z,22.30
2018-06-17T15:18:39.714Z,22.30
2018-06-17T15:21:07.887Z,22.30
2018-06-17T15:26:04.392Z,22.20
2018-06-17T15:28:32.912Z,22.10
2018-06-17T15:31:06.641Z,21.90
2018-06-17T15:33:40.610Z,21.90
2018-06-17T15:36:14.439Z,21.70
2018-06-17T15:38:48.304Z,21.50
2018-06-17T15:41:22.088Z,21.40
2018-06-17T15:43:50.940Z,21.30
2018-06-17T15:46:19.285Z,21.10
2018-06-17T15:48:47.507Z,21.00
2018-06-17T15:53:43.891Z,20.80
2018-06-17T15:56:12.246Z,20.70
2018-06-17T15:58:40.755Z,20.70
2018-06-17T16:01:09.400Z,20.60
2018-06-17T16:03:37.831Z,20.50
2018-06-17T16:06:06.604Z,20.40
2018-06-17T16:08:34.999Z,20.30
2018-06-17T16:11:03.931Z,20.20
2018-06-17T16:13:37.541Z,20.20
2018-06-17T16:16:11.155Z,20.10
2018-06-17T16:18:44.852Z,20.10
2018-06-17T16:21:13.694Z,20.10
2018-06-17T16:23:42.186Z,20.00
2018-06-17T16:26:10.482Z,20.00
2018-06-17T16:28:38.982Z,19.90
2018-06-17T16:31:07.490Z,19.90
2018-06-17T16:33:35.651Z,19.90
2018-06-17T16:36:03.637Z,19.80
2018-06-17T16:38:33.987Z,19.70
2018-06-17T16:41:02.289Z,19.70
2018-06-17T16:43:30.796Z,19.60
2018-06-17T16:48:27.167Z,19.50
2018-06-17T16:51:01.116Z,19.50
2018-06-17T16:56:08.211Z,19.40
2018-06-17T16:58:42.197Z,19.40
2018-06-17T17:01:10.880Z,19.40
2018-06-17T17:03:39.452Z,19.40
2018-06-17T17:06:08.794Z,19.30
2018-06-17T17:13:33.279Z,19.30
2018-06-17T17:16:01.687Z,19.30
2018-06-17T17:18:29.983Z,19.40
2018-06-17T17:20:58.399Z,19.40
2018-06-17T17:23:27.400Z,19.40
2018-06-17T17:25:55.761Z,19.40
2018-06-17T17:28:24.066Z,19.40
2018-06-17T17:30:52.530Z,19.40
2018-06-17T17:33:26.418Z,19.40
2018-06-17T17:36:00.549Z,19.40
2018-06-17T17:38:33.415Z,19.40
2018-06-17T17:41:03.691Z,19.40
2018-06-17T17:43:32.184Z,19.40
2018-06-17T17:46:06.203Z,19.40
2018-06-17T17:48:34.495Z,19.40
2018-06-17T17:51:02.886Z,19.40
2018-06-17T17:53:31.326Z,19.40
2018-06-17T17:55:59.917Z,19.40
2018-06-17T17:58:28.572Z,19.40
2018-06-17T18:00:56.750Z,19.30
2018-06-17T18:03:25.015Z,19.20
2018-06-17T18:05:53.293Z,19.20
2018-06-17T18:08:21.589Z,19.20
2018-06-17T18:13:18.490Z,19.20
2018-06-17T18:15:46.796Z,19.20
2018-06-17T18:20:43.730Z,19.10
2018-06-17T18:23:11.994Z,19.00
2018-06-17T18:29:18.349Z,18.90
2018-06-17T18:31:52.076Z,18.80
2018-06-17T18:34:26.189Z,18.80
2018-06-17T18:36:54.772Z,18.80
2018-06-17T18:39:23.094Z,18.70
2018-06-17T18:41:51.492Z,18.60
2018-06-17T18:46:47.971Z,18.60
2018-06-17T18:51:44.559Z,18.60
2018-06-17T18:54:13.099Z,18.60
2018-06-17T18:56:41.685Z,18.50
2018-06-17T18:59:10.291Z,18.50
2018-06-17T19:01:38.522Z,18.50
2018-06-17T19:04:06.787Z,18.40
2018-06-17T19:06:35.009Z,18.30
2018-06-17T19:09:08.909Z,18.20
2018-06-17T19:11:42.788Z,18.20
2018-06-17T19:14:16.635Z,18.10
2018-06-17T19:16:50.585Z,18.10
2018-06-17T19:19:19.068Z,18.10
2018-06-17T19:21:47.479Z,18.00
2018-06-17T19:24:16.063Z,17.90
2018-06-17T19:29:12.699Z,17.70
2018-06-17T19:31:41.043Z,17.60
2018-06-17T19:34:09.351Z,17.50
2018-06-17T19:41:36.408Z,17.20
2018-06-17T19:44:05.007Z,17.20
2018-06-17T19:46:34.004Z,17.10
2018-06-17T19:51:35.871Z,17.00
2018-06-17T19:54:09.806Z,17.00
2018-06-17T19:56:43.554Z,17.00
2018-06-17T20:01:47.082Z,17.10
2018-06-17T20:04:16.114Z,17.00
2018-06-17T20:09:13.890Z,17.00
2018-06-17T20:11:42.732Z,17.00
2018-06-17T20:14:11.694Z,17.00
2018-06-17T20:16:41.141Z,16.90
2018-06-17T20:21:38.122Z,16.80
2018-06-17T20:24:07.124Z,16.70
2018-06-17T20:26:36.358Z,16.70
2018-06-17T20:29:06.470Z,16.60
2018-06-17T20:31:39.985Z,16.50
2018-06-17T20:34:14.113Z,16.30
2018-06-17T20:36:48.429Z,16.30
2018-06-17T20:42:55.583Z,16.10
2018-06-17T20:45:24.494Z,16.10
2018-06-17T20:47:54.090Z,16.00
2018-06-17T20:50:23.333Z,16.00
2018-06-17T20:55:21.705Z,15.80
2018-06-17T20:57:51.125Z,15.80
2018-06-17T21:00:20.205Z,15.70
2018-06-17T21:02:49.100Z,15.70
2018-06-17T21:05:18.111Z,15.70
2018-06-17T21:07:47.050Z,15.60
2018-06-17T21:10:15.385Z,15.60
2018-06-17T21:12:44.028Z,15.60
2018-06-17T21:15:17.452Z,15.60
2018-06-17T21:17:47.474Z,15.60
2018-06-17T21:20:21.789Z,15.60
2018-06-17T21:28:00.522Z,15.60
2018-06-17T21:35:27.864Z,15.50
2018-06-17T21:40:25.173Z,15.50
2018-06-17T21:42:54.745Z,15.40
2018-06-17T21:45:23.679Z,15.40
2018-06-17T21:47:53.183Z,15.30
2018-06-17T21:50:21.950Z,15.30
2018-06-17T21:55:20.011Z,15.20
2018-06-17T21:57:49.260Z,15.10
2018-06-17T22:00:17.994Z,15.10
2018-06-17T22:02:46.952Z,15.00
2018-06-17T22:05:16.289Z,14.90
2018-06-17T22:07:50.561Z,14.90
2018-06-17T22:10:25.227Z,14.90
2018-06-17T22:12:59.690Z,14.80
2018-06-17T22:15:33.845Z,14.80
2018-06-17T22:25:27.784Z,14.60
2018-06-17T22:27:56.885Z,14.60
2018-06-17T22:30:26.012Z,14.50
2018-06-17T22:32:55.506Z,14.50
2018-06-17T22:35:24.682Z,14.50
2018-06-17T22:37:54.670Z,14.40
2018-06-17T22:40:23.804Z,14.40
2018-06-17T22:45:19.990Z,14.30
2018-06-17T22:47:53.601Z,14.20
2018-06-17T22:53:01.266Z,14.20
2018-06-17T22:55:29.634Z,14.10
2018-06-17T22:58:03.396Z,14.00
2018-06-17T23:00:37.234Z,14.00
2018-06-17T23:03:11.061Z,13.90
2018-06-17T23:05:44.651Z,13.90
2018-06-17T23:08:18.308Z,13.80
2018-06-17T23:10:46.537Z,13.80
2018-06-17T23:15:43.350Z,13.70
2018-06-17T23:18:11.408Z,13.70
2018-06-17T23:20:39.512Z,13.60
2018-06-17T23:23:07.812Z,13.60
2018-06-17T23:33:00.565Z,13.50
2018-06-17T23:35:28.884Z,13.40
2018-06-17T23:37:57.378Z,13.40
2018-06-17T23:40:25.696Z,13.40
2018-06-17T23:45:22.034Z,13.30
2018-06-17T23:47:55.735Z,13.20
2018-06-17T23:50:29.507Z,13.30
2018-06-17T23:53:03.227Z,13.20
2018-06-17T23:55:36.793Z,13.30
2018-06-17T23:58:04.891Z,13.30
